Nova Olimpia, Brazil
Current Conditions -  °F | °C
As of 5:00 PM on Saturday 20 Dec 2014 (Local Time) from SBMG Reporting Station
Scattered Clouds Scattered Clouds  
Wind Chill: 90°   Ceiling: Unl
Heat Index: 96°   Visibility: 6mi
Dew Point: 72°   Wind: 12mph
Humidity: 55%   Direction: 10°N
Pressure: 29.71"   Gusts: NA
Location:  23.47°S, 53.09°W
Report Text: SBMG 201900Z 01010KT 9999 SCT035 32/22 Q1006
Loading
Personal Weather Stations






























Interactive Weather Map New forecast layout! Learn more

10-Day Weather Forecast

Advertisements
Track Severe Weather on mobile